Time;durP1;ratioP1;P1;durP2;ratioP2;P2;SDS_P1;SDS_P2;PMS_P1;PMS_P2;Temp;Humidity;BMP_temperature;BMP_pressure;BME280_temperature;BME280_humidity;BME280_pressure;Samples;Min_cycle;Max_cycle;Signal;HPM_P1;HPM_P2
2021/10/24 00:00:58;;;;;;;23.57;16.53;;;10.60;81.20;;;;;;5058401;28;20169;-82
2021/10/24 00:03:23;;;;;;;26.95;14.23;;;10.60;81.40;;;;;;5051739;28;20206;-82
2021/10/24 00:05:49;;;;;;;20.80;13.97;;;10.50;81.50;;;;;;5038044;28;20204;-82
2021/10/24 00:08:15;;;;;;;28.43;16.70;;;10.60;81.50;;;;;;5053633;28;20173;-82
2021/10/24 00:10:40;;;;;;;24.17;15.60;;;10.60;81.20;;;;;;5057189;28;20242;-83
2021/10/24 00:13:06;;;;;;;23.43;15.27;;;10.50;81.20;;;;;;5047256;28;20177;-83
2021/10/24 00:15:32;;;;;;;23.40;14.60;;;10.60;81.30;;;;;;5040366;28;20181;-82
2021/10/24 00:17:57;;;;;;;20.37;14.83;;;10.60;81.10;;;;;;5047459;28;20201;-82
2021/10/24 00:20:23;;;;;;;20.23;15.20;;;10.70;80.80;;;;;;5038804;28;20707;-83
2021/10/24 00:22:49;;;;;;;19.40;13.40;;;10.50;80.70;;;;;;5039126;28;20721;-83
2021/10/24 00:25:15;;;;;;;18.90;13.20;;;10.50;80.80;;;;;;5030981;28;20203;-82
2021/10/24 00:27:40;;;;;;;29.37;13.43;;;10.60;80.70;;;;;;5038135;28;20189;-82
2021/10/24 00:30:07;;;;;;;20.83;13.23;;;10.50;80.50;;;;;;5037685;28;20412;-82
2021/10/24 00:32:33;;;;;;;21.65;14.73;;;10.50;80.40;;;;;;5037671;28;20174;-82
2021/10/24 00:34:59;;;;;;;18.55;13.40;;;10.40;80.40;;;;;;5017857;28;20241;-83
2021/10/24 00:37:24;;;;;;;18.73;13.93;;;10.30;80.60;;;;;;5020155;28;20181;-82
2021/10/24 00:39:50;;;;;;;16.93;12.40;;;10.30;80.90;;;;;;5021166;28;20184;-82
2021/10/24 00:42:16;;;;;;;18.33;13.33;;;10.30;80.80;;;;;;5020622;28;20239;-82
2021/10/24 00:44:42;;;;;;;18.07;12.90;;;10.30;80.80;;;;;;5020600;28;20204;-82
2021/10/24 00:47:07;;;;;;;19.95;14.27;;;10.30;81.00;;;;;;5021561;28;20519;-82
2021/10/24 00:49:35;;;;;;;22.60;14.30;;;10.30;81.10;;;;;;5034524;28;20181;-82
2021/10/24 00:52:01;;;;;;;26.92;12.60;;;10.20;80.90;;;;;;5058435;28;20282;-82
2021/10/24 00:54:28;;;;;;;19.38;13.20;;;10.10;81.00;;;;;;5055703;28;20570;-82
2021/10/24 00:56:56;;;;;;;18.25;12.70;;;10.10;81.30;;;;;;5040961;28;20245;-82
2021/10/24 00:59:25;;;;;;;20.60;14.13;;;10.00;81.60;;;;;;5058991;28;20178;-82
2021/10/24 01:01:51;;;;;;;22.63;13.00;;;10.00;81.80;;;;;;5058650;28;20173;-82
2021/10/24 01:04:19;;;;;;;15.60;12.43;;;10.00;82.00;;;;;;5050528;28;20611;-82
2021/10/24 01:06:52;;;;;;;20.08;13.23;;;10.10;82.00;;;;;;5052794;28;20201;-82
2021/10/24 01:09:22;;;;;;;18.40;12.25;;;10.20;81.60;;;;;;5054543;28;20181;-82
2021/10/24 01:11:49;;;;;;;17.88;13.23;;;10.20;81.20;;;;;;5054981;28;20193;-82
2021/10/24 01:14:15;;;;;;;19.20;12.90;;;10.20;81.00;;;;;;5056672;28;20205;-82
2021/10/24 01:16:43;;;;;;;16.20;12.35;;;10.20;80.70;;;;;;5053661;28;20279;-82
2021/10/24 01:19:11;;;;;;;15.90;11.45;;;10.10;80.70;;;;;;5038006;28;20166;-82
2021/10/24 01:21:37;;;;;;;15.50;10.48;;;10.00;80.80;;;;;;5038130;28;20264;-82
2021/10/24 01:24:04;;;;;;;18.87;12.60;;;10.00;80.90;;;;;;5042049;28;20802;-82
2021/10/24 01:26:30;;;;;;;16.88;12.10;;;9.90;81.20;;;;;;5055058;28;20500;-82
2021/10/24 01:28:56;;;;;;;18.87;12.30;;;9.80;81.30;;;;;;5021637;28;20185;-82
2021/10/24 01:31:23;;;;;;;18.00;11.82;;;9.90;81.30;;;;;;5045561;28;20783;-82
2021/10/24 01:33:49;;;;;;;17.23;12.48;;;9.90;81.00;;;;;;5040205;28;20640;-82
2021/10/24 01:36:15;;;;;;;20.93;12.17;;;9.80;81.00;;;;;;5055445;28;20216;-82
2021/10/24 01:38:46;;;;;;;27.00;13.47;;;9.70;81.40;;;;;;5046974;28;20435;-82
2021/10/24 01:41:12;;;;;;;17.85;11.88;;;9.80;81.80;;;;;;5038776;28;20417;-82
2021/10/24 01:43:37;;;;;;;22.93;12.97;;;9.80;81.60;;;;;;5039315;28;20216;-82
2021/10/24 01:46:04;;;;;;;18.90;12.87;;;9.90;81.40;;;;;;5041763;28;20551;-82
2021/10/24 01:48:31;;;;;;;20.30;12.40;;;9.90;81.20;;;;;;5040692;28;20428;-82
2021/10/24 01:50:58;;;;;;;14.60;11.30;;;9.90;80.90;;;;;;5042401;28;20260;-82
2021/10/24 01:53:28;;;;;;;20.90;11.77;;;9.90;80.80;;;;;;5045873;28;20209;-82
2021/10/24 01:55:54;;;;;;;16.55;9.90;;;9.80;80.70;;;;;;5045643;28;20200;-82
2021/10/24 01:58:20;;;;;;;14.30;11.07;;;9.80;80.70;;;;;;5059644;28;20177;-82
2021/10/24 02:00:46;;;;;;;20.48;12.98;;;9.80;80.40;;;;;;5044281;28;20260;-82
2021/10/24 02:03:12;;;;;;;14.73;11.88;;;9.80;80.60;;;;;;5057190;28;20185;-82
2021/10/24 02:05:38;;;;;;;13.20;10.10;;;9.80;80.20;;;;;;5071319;28;20200;-82
2021/10/24 02:08:05;;;;;;;15.57;11.10;;;9.70;80.40;;;;;;5062907;28;20176;-82
2021/10/24 02:10:31;;;;;;;15.30;12.10;;;9.70;80.40;;;;;;5037958;28;20186;-82
2021/10/24 02:12:57;;;;;;;14.65;11.02;;;9.70;80.50;;;;;;5038927;28;20189;-82
2021/10/24 02:15:24;;;;;;;20.50;11.97;;;9.40;80.60;;;;;;5058312;28;20295;-82
2021/10/24 02:17:50;;;;;;;17.20;12.57;;;9.40;81.30;;;;;;5043145;28;20843;-82
2021/10/24 02:20:16;;;;;;;14.60;10.98;;;9.50;81.50;;;;;;5018435;28;20273;-82
2021/10/24 02:22:42;;;;;;;25.00;13.07;;;9.60;81.10;;;;;;5037092;28;20194;-82
2021/10/24 02:25:08;;;;;;;18.53;12.10;;;9.60;80.70;;;;;;5019374;28;20615;-82
2021/10/24 02:27:34;;;;;;;21.25;12.25;;;9.60;80.50;;;;;;5027727;28;20181;-82
2021/10/24 02:30:00;;;;;;;15.75;12.23;;;9.50;80.50;;;;;;5035803;28;20185;-82
2021/10/24 02:32:26;;;;;;;16.43;11.43;;;9.50;80.80;;;;;;5038487;28;20205;-82
2021/10/24 02:34:52;;;;;;;16.03;10.73;;;9.50;80.60;;;;;;5037692;28;20482;-82
2021/10/24 02:37:17;;;;;;;17.43;12.00;;;9.30;80.80;;;;;;5038703;28;20176;-82
2021/10/24 02:39:43;;;;;;;20.53;12.10;;;9.20;81.10;;;;;;5038840;28;20416;-82
2021/10/24 02:42:09;;;;;;;19.87;12.83;;;9.30;81.20;;;;;;5039050;28;20174;-82
2021/10/24 02:44:35;;;;;;;26.57;11.20;;;9.40;81.10;;;;;;5036559;28;20471;-82
2021/10/24 02:47:01;;;;;;;22.47;11.17;;;9.50;81.00;;;;;;5039097;28;20474;-82
2021/10/24 02:49:27;;;;;;;16.83;11.50;;;9.40;80.50;;;;;;5039384;28;20423;-82
2021/10/24 02:51:56;;;;;;;16.87;10.73;;;9.40;80.50;;;;;;5038978;28;20177;-82
2021/10/24 02:54:23;;;;;;;18.20;12.15;;;9.40;80.50;;;;;;5057011;28;20474;-82
2021/10/24 02:56:49;;;;;;;14.38;10.85;;;9.40;80.60;;;;;;5039121;28;20185;-82
2021/10/24 02:59:16;;;;;;;18.17;12.07;;;9.40;80.50;;;;;;5021122;28;20716;-82
2021/10/24 03:01:41;;;;;;;17.38;11.40;;;9.40;80.20;;;;;;5023474;28;20253;-82
2021/10/24 03:04:10;;;;;;;15.13;11.40;;;9.30;80.20;;;;;;5039065;28;20664;-82
2021/10/24 03:06:35;;;;;;;16.65;10.50;;;9.20;80.30;;;;;;5019594;28;20198;-82
2021/10/24 03:09:01;;;;;;;17.53;11.60;;;9.00;81.30;;;;;;5015473;28;20193;-82
2021/10/24 03:11:27;;;;;;;15.10;11.60;;;9.10;80.80;;;;;;5016521;28;20882;-82
2021/10/24 03:13:53;;;;;;;17.40;11.87;;;9.10;80.70;;;;;;5046724;28;20209;-82
2021/10/24 03:16:18;;;;;;;19.90;11.93;;;9.00;80.70;;;;;;5020250;28;20166;-82
2021/10/24 03:18:44;;;;;;;19.70;13.17;;;9.10;80.90;;;;;;5016005;28;20183;-82
2021/10/24 03:21:10;;;;;;;19.33;10.97;;;9.20;80.70;;;;;;5016505;28;20185;-83
2021/10/24 03:23:35;;;;;;;16.90;11.40;;;9.20;80.40;;;;;;5015665;28;20206;-82
2021/10/24 03:26:01;;;;;;;13.80;10.17;;;9.10;80.40;;;;;;5015086;28;20197;-82
2021/10/24 03:28:26;;;;;;;15.77;9.90;;;9.00;80.40;;;;;;5016336;28;20657;-82
2021/10/24 03:30:55;;;;;;;20.37;12.40;;;8.90;80.80;;;;;;5025341;28;20660;-82
2021/10/24 03:33:21;;;;;;;23.42;13.15;;;8.80;81.50;;;;;;5020952;28;20198;-82
2021/10/24 03:35:46;;;;;;;27.87;12.37;;;8.70;81.50;;;;;;5015882;28;20182;-82
2021/10/24 03:38:12;;;;;;;16.20;12.23;;;8.80;81.90;;;;;;5033134;28;20409;-82
2021/10/24 03:40:38;;;;;;;19.50;11.80;;;8.80;81.90;;;;;;5040053;28;20174;-83
2021/10/24 03:43:03;;;;;;;19.80;12.73;;;9.00;81.80;;;;;;5034858;28;20180;-82
2021/10/24 03:45:29;;;;;;;14.93;11.20;;;9.00;81.50;;;;;;5039865;28;20181;-82
2021/10/24 03:47:55;;;;;;;16.97;11.63;;;9.10;81.20;;;;;;5042339;28;20245;-82
2021/10/24 03:50:21;;;;;;;17.27;12.50;;;9.10;80.80;;;;;;5032673;28;20658;-82
2021/10/24 03:52:47;;;;;;;17.10;11.80;;;9.10;80.50;;;;;;5032018;28;20178;-82
2021/10/24 03:55:12;;;;;;;17.55;11.40;;;9.10;80.50;;;;;;5034648;28;20220;-82
2021/10/24 03:57:39;;;;;;;16.17;10.83;;;9.00;80.30;;;;;;5034118;28;20191;-82
2021/10/24 04:00:06;;;;;;;16.15;12.40;;;8.90;80.30;;;;;;5032764;28;20179;-82
2021/10/24 04:02:32;;;;;;;15.93;11.30;;;8.70;80.60;;;;;;5034063;28;20249;-82
2021/10/24 04:04:58;;;;;;;18.13;13.23;;;8.80;80.80;;;;;;5048544;28;20858;-82
2021/10/24 04:07:24;;;;;;;19.77;12.60;;;8.70;80.70;;;;;;5030838;28;20185;-82
2021/10/24 04:09:50;;;;;;;19.23;11.63;;;8.80;80.70;;;;;;5048226;28;20581;-82
2021/10/24 04:12:15;;;;;;;19.33;11.50;;;8.80;80.60;;;;;;5045416;28;20487;-82
2021/10/24 04:14:41;;;;;;;18.13;11.83;;;8.80;80.70;;;;;;5042085;28;20225;-82
2021/10/24 04:17:08;;;;;;;17.67;12.63;;;8.80;80.80;;;;;;5059912;28;20222;-84
2021/10/24 04:19:34;;;;;;;19.73;12.45;;;8.80;80.70;;;;;;5058366;28;20182;-82
2021/10/24 04:22:00;;;;;;;21.30;13.20;;;8.70;80.80;;;;;;5044451;28;20186;-82
2021/10/24 04:24:26;;;;;;;21.67;12.18;;;8.80;80.70;;;;;;5021307;28;20812;-82
2021/10/24 04:26:52;;;;;;;18.03;12.60;;;8.70;80.50;;;;;;5029884;28;20185;-82
2021/10/24 04:29:18;;;;;;;17.90;12.75;;;8.70;80.40;;;;;;5024789;28;20193;-82
2021/10/24 04:31:45;;;;;;;22.50;13.23;;;8.70;80.30;;;;;;5052651;28;20181;-82
2021/10/24 04:34:10;;;;;;;15.55;11.60;;;8.70;80.60;;;;;;5058825;28;20196;-82
2021/10/24 04:36:36;;;;;;;16.70;11.97;;;8.60;80.40;;;;;;5039177;28;20232;-82
2021/10/24 04:39:02;;;;;;;18.90;11.60;;;8.50;80.50;;;;;;5058736;28;20403;-82
2021/10/24 04:41:29;;;;;;;20.77;13.98;;;8.60;80.60;;;;;;5037064;28;20409;-82
2021/10/24 04:43:54;;;;;;;26.52;13.48;;;8.50;80.50;;;;;;5038167;28;20656;-82
2021/10/24 04:46:20;;;;;;;23.87;13.10;;;8.50;80.80;;;;;;5020634;28;20209;-82
2021/10/24 04:48:46;;;;;;;17.30;11.83;;;8.50;81.00;;;;;;5020317;28;20456;-82
2021/10/24 04:51:12;;;;;;;23.50;14.50;;;8.50;81.00;;;;;;5019295;28;20507;-82
2021/10/24 04:53:37;;;;;;;19.13;11.80;;;8.40;80.90;;;;;;5030889;28;20217;-82
2021/10/24 04:56:03;;;;;;;22.70;13.17;;;8.40;81.20;;;;;;5020210;28;20248;-82
2021/10/24 04:58:29;;;;;;;23.70;13.67;;;8.50;81.30;;;;;;5004173;28;20421;-82
2021/10/24 05:00:55;;;;;;;27.17;14.90;;;8.30;81.20;;;;;;5039867;28;20421;-82
2021/10/24 05:03:20;;;;;;;18.77;13.07;;;8.40;81.20;;;;;;5052073;28;20201;-82
2021/10/24 05:05:47;;;;;;;19.10;13.93;;;8.30;81.40;;;;;;5045369;28;20197;-82
2021/10/24 05:08:13;;;;;;;21.80;13.70;;;8.40;81.30;;;;;;5058069;28;20204;-82
2021/10/24 05:10:41;;;;;;;23.88;13.45;;;8.30;81.40;;;;;;5057908;28;20173;-82
2021/10/24 05:13:07;;;;;;;23.17;14.40;;;8.20;81.50;;;;;;5051993;28;20171;-82
2021/10/24 05:15:33;;;;;;;25.38;14.23;;;8.30;81.50;;;;;;5036178;28;20206;-82
2021/10/24 05:17:59;;;;;;;22.27;14.03;;;8.10;81.50;;;;;;5050721;28;20944;-82
2021/10/24 05:20:24;;;;;;;20.63;13.77;;;8.10;81.80;;;;;;5056215;28;20268;-83
2021/10/24 05:22:50;;;;;;;17.93;13.20;;;8.10;81.90;;;;;;5056673;28;20534;-82
2021/10/24 05:25:16;;;;;;;21.53;14.50;;;8.30;81.90;;;;;;5056060;28;20197;-82
2021/10/24 05:27:42;;;;;;;22.07;12.27;;;8.30;81.60;;;;;;5052545;28;20182;-82
2021/10/24 05:30:08;;;;;;;22.87;12.80;;;8.10;81.70;;;;;;5036418;28;20265;-82
2021/10/24 05:32:34;;;;;;;19.90;13.63;;;8.20;81.70;;;;;;5072296;28;20766;-82
2021/10/24 05:35:00;;;;;;;17.97;12.17;;;8.20;81.50;;;;;;5051842;28;20305;-82
2021/10/24 05:37:25;;;;;;;19.13;12.20;;;8.20;81.40;;;;;;5039235;28;20421;-82
2021/10/24 05:39:51;;;;;;;24.27;12.47;;;8.30;81.40;;;;;;5053397;28;20192;-82
2021/10/24 05:42:17;;;;;;;22.40;13.50;;;8.20;81.10;;;;;;5052726;28;20315;-82
2021/10/24 05:44:43;;;;;;;21.43;11.73;;;8.20;81.00;;;;;;5052642;28;20209;-82
2021/10/24 05:47:09;;;;;;;19.45;13.70;;;8.20;80.90;;;;;;5036755;28;20174;-82
2021/10/24 05:49:35;;;;;;;18.95;12.73;;;8.00;81.20;;;;;;5042305;28;20184;-82
2021/10/24 05:52:01;;;;;;;19.83;12.67;;;7.80;81.70;;;;;;5054974;28;20181;-82
2021/10/24 05:54:27;;;;;;;21.30;14.07;;;8.00;82.50;;;;;;5055480;28;20263;-82
2021/10/24 05:56:52;;;;;;;21.10;13.60;;;7.90;81.70;;;;;;5056486;28;20169;-82
2021/10/24 05:59:18;;;;;;;19.70;12.27;;;7.80;82.00;;;;;;5056280;28;20411;-82
2021/10/24 06:01:44;;;;;;;23.60;13.37;;;7.80;82.20;;;;;;5053557;28;20226;-82
2021/10/24 06:04:09;;;;;;;19.63;12.87;;;7.90;82.20;;;;;;5053672;28;20205;-82
2021/10/24 06:06:35;;;;;;;20.57;12.80;;;8.10;82.00;;;;;;5052240;28;20193;-82
2021/10/24 06:09:01;;;;;;;17.70;12.27;;;8.00;81.50;;;;;;5020388;28;20277;-82
2021/10/24 06:11:45;;;;;;;25.08;12.95;;;7.90;81.60;;;;;;5035667;28;20177;-82
2021/10/24 06:14:11;;;;;;;20.23;12.77;;;8.00;81.50;;;;;;5050037;28;20218;-82
2021/10/24 06:16:37;;;;;;;20.37;12.30;;;8.00;81.20;;;;;;5050581;28;20656;-82
2021/10/24 06:19:02;;;;;;;18.33;12.87;;;8.10;81.00;;;;;;5033890;28;20170;-82
2021/10/24 06:21:28;;;;;;;16.37;10.37;;;8.00;80.80;;;;;;5035773;28;20170;-82
2021/10/24 06:23:54;;;;;;;21.90;11.73;;;8.00;80.60;;;;;;5034047;28;20255;-82
2021/10/24 06:26:20;;;;;;;20.10;11.87;;;8.00;80.60;;;;;;5053055;28;20181;-82
2021/10/24 06:28:46;;;;;;;27.67;13.20;;;7.90;80.60;;;;;;5049509;28;20599;-81
2021/10/24 06:31:11;;;;;;;18.20;12.30;;;7.90;80.60;;;;;;5042775;28;20216;-82
2021/10/24 06:33:37;;;;;;;19.10;12.77;;;7.90;80.50;;;;;;5051303;28;20225;-82
2021/10/24 06:36:03;;;;;;;17.80;11.70;;;7.80;80.40;;;;;;5050715;28;20212;-82
2021/10/24 06:38:30;;;;;;;18.38;11.20;;;7.70;80.50;;;;;;5035327;28;20232;-82
2021/10/24 06:40:55;;;;;;;21.20;11.20;;;7.80;80.50;;;;;;5034872;28;20166;-82
2021/10/24 06:43:21;;;;;;;22.80;11.77;;;7.80;80.40;;;;;;5060365;28;20247;-83
2021/10/24 06:45:47;;;;;;;18.10;12.37;;;7.90;80.50;;;;;;5054642;28;20196;-83
2021/10/24 06:48:13;;;;;;;24.23;12.80;;;7.90;80.40;;;;;;5055784;28;20213;-82
2021/10/24 06:50:38;;;;;;;19.65;12.02;;;7.90;80.30;;;;;;5056685;28;20188;-83
2021/10/24 06:53:04;;;;;;;19.20;11.43;;;7.80;80.40;;;;;;5052202;28;20178;-83
2021/10/24 06:55:30;;;;;;;20.83;12.20;;;7.80;80.50;;;;;;5056803;28;20201;-82
2021/10/24 06:57:56;;;;;;;20.80;10.57;;;7.60;80.50;;;;;;5054188;28;20566;-82
2021/10/24 07:00:26;;;;;;;17.52;10.85;;;7.60;80.50;;;;;;5051818;28;20194;-83
2021/10/24 07:02:52;;;;;;;18.33;11.50;;;7.60;80.70;;;;;;5068623;28;20185;-83
2021/10/24 07:05:18;;;;;;;18.70;11.27;;;7.70;80.90;;;;;;5054491;28;20296;-83
2021/10/24 07:07:45;;;;;;;18.50;12.38;;;7.80;80.70;;;;;;5049153;28;20216;-83
2021/10/24 07:10:12;;;;;;;22.85;12.48;;;7.80;80.60;;;;;;5049542;28;20268;-82
2021/10/24 07:12:39;;;;;;;16.63;11.05;;;7.90;80.40;;;;;;5033066;28;20182;-82
2021/10/24 07:15:06;;;;;;;20.83;13.25;;;7.90;80.10;;;;;;5032031;28;20217;-83
2021/10/24 07:17:32;;;;;;;18.88;12.90;;;7.90;80.00;;;;;;5018433;28;20174;-83
2021/10/24 07:19:58;;;;;;;16.80;11.27;;;7.90;79.90;;;;;;5052583;28;20187;-83
2021/10/24 07:22:24;;;;;;;18.57;10.63;;;8.00;79.90;;;;;;5048883;28;20178;-83
2021/10/24 07:24:49;;;;;;;14.37;9.93;;;8.00;79.90;;;;;;5028717;28;20458;-83
2021/10/24 07:27:16;;;;;;;17.03;11.37;;;8.10;79.80;;;;;;5027349;28;20419;-85
2021/10/24 07:29:43;;;;;;;18.30;9.93;;;8.20;80.00;;;;;;5026357;28;20449;-83
2021/10/24 07:32:09;;;;;;;15.38;10.18;;;8.20;79.70;;;;;;5043094;28;20184;-84
2021/10/24 07:34:35;;;;;;;14.93;10.10;;;8.20;79.70;;;;;;5032566;28;20770;-85
2021/10/24 07:37:01;;;;;;;20.00;11.17;;;8.20;79.80;;;;;;5045701;28;20195;-84
2021/10/24 07:39:27;;;;;;;18.67;8.40;;;8.30;79.80;;;;;;5043224;28;20421;-83
2021/10/24 07:41:53;;;;;;;10.23;8.00;;;8.40;79.40;;;;;;5028634;28;20416;-82
2021/10/24 07:44:19;;;;;;;13.55;9.73;;;8.50;79.80;;;;;;5014233;28;20217;-83
2021/10/24 07:46:46;;;;;;;16.40;9.30;;;8.50;79.00;;;;;;5033068;28;20241;-83
2021/10/24 07:49:13;;;;;;;16.20;10.70;;;8.50;78.70;;;;;;5051748;28;20978;-83
2021/10/24 07:51:39;;;;;;;15.07;9.48;;;8.60;78.50;;;;;;5035343;28;20189;-82
2021/10/24 07:54:06;;;;;;;12.77;7.90;;;8.50;78.20;;;;;;5046157;28;20205;-82
2021/10/24 07:56:36;;;;;;;11.32;8.27;;;8.50;78.30;;;;;;5055696;28;20419;-83
2021/10/24 07:59:03;;;;;;;15.75;9.57;;;8.60;78.30;;;;;;5055183;28;20181;-83
2021/10/24 08:01:33;;;;;;;11.25;8.18;;;8.60;78.40;;;;;;5072808;28;20169;-83
2021/10/24 08:03:59;;;;;;;13.90;10.00;;;8.60;78.20;;;;;;5030566;28;20205;-82
2021/10/24 08:06:25;;;;;;;12.40;8.07;;;8.70;78.30;;;;;;5055812;28;20653;-83
2021/10/24 08:08:52;;;;;;;12.77;8.37;;;8.60;78.30;;;;;;5062960;28;20546;-83
2021/10/24 08:11:18;;;;;;;13.57;8.82;;;8.60;78.10;;;;;;5060874;28;20423;-83
2021/10/24 08:13:44;;;;;;;13.27;8.35;;;8.70;78.60;;;;;;5061733;28;20240;-83
2021/10/24 08:16:10;;;;;;;9.90;6.93;;;8.70;78.70;;;;;;5061300;28;20169;-83
2021/10/24 08:18:36;;;;;;;19.73;7.75;;;8.70;78.80;;;;;;5062332;28;20594;-83
2021/10/24 08:21:02;;;;;;;13.33;7.63;;;8.60;78.60;;;;;;5062178;28;20182;-83
2021/10/24 08:23:28;;;;;;;10.80;7.60;;;8.60;78.60;;;;;;5060588;28;20197;-83
2021/10/24 08:25:54;;;;;;;11.25;7.47;;;8.60;78.70;;;;;;5060743;28;20408;-82
2021/10/24 08:28:20;;;;;;;7.83;5.87;;;8.70;78.50;;;;;;5059935;28;20176;-83
2021/10/24 08:30:48;;;;;;;9.98;6.43;;;8.60;78.00;;;;;;5053506;28;20788;-82
2021/10/24 08:33:15;;;;;;;10.40;7.15;;;8.70;78.30;;;;;;5058670;28;20205;-83
2021/10/24 08:35:41;;;;;;;9.75;6.28;;;9.00;78.30;;;;;;5059462;28;20204;-83
2021/10/24 08:38:07;;;;;;;8.60;6.40;;;8.90;77.60;;;;;;5057732;28;20174;-83
2021/10/24 08:40:33;;;;;;;8.40;6.73;;;8.90;77.20;;;;;;5059071;28;20762;-83
2021/10/24 08:43:03;;;;;;;10.60;6.78;;;8.90;77.30;;;;;;5058561;28;20894;-83
2021/10/24 08:45:29;;;;;;;14.65;7.60;;;8.90;76.80;;;;;;5062761;28;20181;-83
2021/10/24 08:47:56;;;;;;;10.18;6.55;;;8.90;77.00;;;;;;5062590;28;20181;-83
2021/10/24 08:50:22;;;;;;;10.57;6.05;;;9.00;77.20;;;;;;5061379;28;20181;-83
2021/10/24 08:52:51;;;;;;;8.90;7.43;;;9.10;77.10;;;;;;5078414;28;20199;-83
2021/10/24 08:55:18;;;;;;;8.93;6.13;;;9.10;76.40;;;;;;5060978;28;20221;-83
2021/10/24 08:57:47;;;;;;;8.05;7.18;;;9.40;76.80;;;;;;5063993;28;20235;-82
2021/10/24 09:00:13;;;;;;;11.82;6.72;;;9.50;76.20;;;;;;5062991;28;20275;-83
2021/10/24 09:02:58;;;;;;;10.37;6.60;;;9.50;76.10;;;;;;5060986;28;20173;-82
2021/10/24 09:05:44;;;;;;;10.30;6.72;;;9.60;75.40;;;;;;5077426;28;20542;-83
2021/10/24 09:08:19;;;;;;;9.77;6.25;;;9.50;74.80;;;;;;5067991;28;20705;-83
2021/10/24 09:10:48;;;;;;;9.10;7.05;;;9.60;75.00;;;;;;5076969;28;20157;-83
2021/10/24 09:13:35;;;;;;;10.68;6.78;;;9.90;75.50;;;;;;5076291;28;20249;-83
2021/10/24 09:16:05;;;;;;;9.20;5.78;;;9.60;74.20;;;;;;5067341;28;20275;-83
2021/10/24 09:18:38;;;;;;;9.43;5.97;;;9.80;74.70;;;;;;5056221;28;20759;-83
2021/10/24 09:21:16;;;;;;;7.18;5.85;;;9.90;74.50;;;;;;5055873;28;20185;-83
2021/10/24 09:24:01;;;;;;;8.35;6.10;;;10.10;74.60;;;;;;5055939;28;20242;-83
2021/10/24 09:26:29;;;;;;;6.85;5.95;;;9.90;73.90;;;;;;5052434;28;20265;-83
2021/10/24 09:29:01;;;;;;;7.15;5.70;;;9.90;74.40;;;;;;5052403;28;20180;-83
2021/10/24 09:31:51;;;;;;;8.50;5.15;;;10.00;74.10;;;;;;5043547;28;20209;-83
2021/10/24 09:34:20;;;;;;;7.45;5.70;;;10.30;74.50;;;;;;5036121;28;20201;-83
2021/10/24 09:36:50;;;;;;;12.25;6.10;;;10.30;73.50;;;;;;5052729;28;20204;-83
2021/10/24 09:39:16;;;;;;;7.97;5.80;;;10.40;73.60;;;;;;5054744;28;20626;-83
2021/10/24 09:41:42;;;;;;;8.37;5.20;;;10.60;73.40;;;;;;5054293;28;20174;-83
2021/10/24 09:44:10;;;;;;;9.10;5.73;;;10.50;72.70;;;;;;5055143;28;20771;-83
2021/10/24 09:46:36;;;;;;;13.30;6.65;;;10.40;72.00;;;;;;5046132;28;20178;-83
2021/10/24 09:49:15;;;;;;;11.30;6.30;;;10.50;72.00;;;;;;5062647;28;20343;-83
2021/10/24 09:51:41;;;;;;;6.65;5.47;;;10.80;72.80;;;;;;5049054;28;20173;-83
2021/10/24 09:54:17;;;;;;;14.80;6.00;;;10.80;72.60;;;;;;5047651;28;20215;-83
2021/10/24 09:56:44;;;;;;;6.20;5.38;;;11.00;72.30;;;;;;5050992;28;20272;-83
2021/10/24 09:59:12;;;;;;;6.25;5.47;;;11.10;71.90;;;;;;5054916;28;20175;-84
2021/10/24 10:01:38;;;;;;;7.40;5.57;;;11.00;71.10;;;;;;5043618;28;20181;-83
2021/10/24 10:04:04;;;;;;;6.05;5.45;;;11.20;71.00;;;;;;5043705;28;20209;-83
2021/10/24 10:06:30;;;;;;;10.30;5.47;;;11.40;70.60;;;;;;5059873;28;20225;-83
2021/10/24 10:08:58;;;;;;;8.90;4.93;;;11.30;70.10;;;;;;5045235;28;20660;-83
2021/10/24 10:11:43;;;;;;;7.28;5.13;;;11.40;70.40;;;;;;5074009;28;20181;-83
2021/10/24 10:14:16;;;;;;;8.35;4.85;;;11.50;70.60;;;;;;5035301;28;20213;-83
2021/10/24 10:16:45;;;;;;;7.13;5.60;;;11.50;69.70;;;;;;5038153;28;20178;-83
2021/10/24 10:19:13;;;;;;;11.98;5.90;;;11.80;69.90;;;;;;5036466;28;20182;-83
2021/10/24 10:21:42;;;;;;;7.25;4.50;;;11.60;68.10;;;;;;5036519;28;20181;-83
2021/10/24 10:24:11;;;;;;;5.43;4.55;;;11.60;68.60;;;;;;5035800;28;20202;-83
2021/10/24 10:26:45;;;;;;;17.45;5.45;;;11.80;68.40;;;;;;5039799;28;20185;-83
2021/10/24 10:29:14;;;;;;;4.90;4.50;;;11.80;68.10;;;;;;5036809;28;20280;-83
2021/10/24 10:32:00;;;;;;;5.30;4.53;;;11.90;68.40;;;;;;5037337;28;20189;-83
2021/10/24 10:34:26;;;;;;;13.70;4.72;;;12.10;68.10;;;;;;5036186;28;20209;-83
2021/10/24 10:36:55;;;;;;;4.88;4.00;;;12.00;67.40;;;;;;5036753;28;20655;-84
2021/10/24 10:39:33;;;;;;;6.90;4.50;;;12.10;67.70;;;;;;5039040;28;20555;-83
2021/10/24 10:42:23;;;;;;;6.18;5.20;;;12.20;67.60;;;;;;5038285;28;20174;-83
2021/10/24 10:45:14;;;;;;;6.05;4.50;;;12.20;67.50;;;;;;5056207;28;20620;-83
2021/10/24 10:47:54;;;;;;;6.10;4.97;;;12.20;66.90;;;;;;5046613;28;20689;-83
2021/10/24 10:50:43;;;;;;;5.85;4.00;;;12.30;67.00;;;;;;5049284;28;20182;-83
2021/10/24 10:53:47;;;;;;;8.27;4.57;;;12.20;65.00;;;;;;5051012;28;20177;-83
2021/10/24 10:56:12;;;;;;;4.90;4.40;;;12.30;66.00;;;;;;5049907;28;20182;-83
2021/10/24 10:58:41;;;;;;;6.27;4.27;;;12.40;65.00;;;;;;5048838;28;20621;-83
2021/10/24 11:01:27;;;;;;;5.55;4.68;;;12.50;64.60;;;;;;5046323;28;20199;-83
2021/10/24 11:04:08;;;;;;;7.18;4.65;;;12.60;63.90;;;;;;5026760;28;20202;-83
2021/10/24 11:06:33;;;;;;;7.50;5.00;;;12.90;63.60;;;;;;5042003;28;20216;-83
2021/10/24 11:09:11;;;;;;;5.53;3.87;;;13.00;63.40;;;;;;5042883;28;20178;-83
2021/10/24 11:11:45;;;;;;;4.32;3.92;;;12.90;62.80;;;;;;5041607;28;20339;-83
2021/10/24 11:14:14;;;;;;;4.30;3.60;;;12.80;62.90;;;;;;5041372;28;20201;-83
2021/10/24 11:16:42;;;;;;;8.52;5.22;;;13.00;62.90;;;;;;5041689;28;20248;-83
2021/10/24 11:19:27;;;;;;;9.00;4.25;;;13.00;62.50;;;;;;5041832;28;20181;-83
2021/10/24 11:22:22;;;;;;;7.50;4.45;;;12.90;62.60;;;;;;5042502;28;20174;-83
2021/10/24 11:24:53;;;;;;;4.45;3.55;;;13.20;62.70;;;;;;5034906;28;20212;-84
2021/10/24 11:27:29;;;;;;;5.88;4.25;;;13.40;62.40;;;;;;5068126;28;20185;-84
2021/10/24 11:30:03;;;;;;;5.07;4.07;;;13.30;63.00;;;;;;5059346;28;20195;-84
2021/10/24 11:32:34;;;;;;;5.22;3.70;;;13.20;61.40;;;;;;5039296;28;20230;-83
2021/10/24 11:35:11;;;;;;;7.85;5.05;;;13.20;61.30;;;;;;5040500;28;20220;-83
2021/10/24 11:37:48;;;;;;;5.47;4.03;;;13.30;61.60;;;;;;5039813;28;20232;-83
2021/10/24 11:40:27;;;;;;;5.13;3.40;;;13.30;61.40;;;;;;5040647;28;20232;-83
2021/10/24 11:43:12;;;;;;;6.05;3.83;;;13.60;62.00;;;;;;5040435;28;20649;-84
2021/10/24 11:45:47;;;;;;;5.20;3.25;;;13.70;61.20;;;;;;5055724;28;20189;-83
2021/10/24 11:48:17;;;;;;;6.43;3.78;;;13.70;60.90;;;;;;5039733;28;20185;-83
2021/10/24 11:50:50;;;;;;;6.25;3.70;;;13.60;60.00;;;;;;5039963;28;20185;-83
2021/10/24 11:53:43;;;;;;;9.50;4.15;;;13.80;59.80;;;;;;5039294;28;20575;-83
2021/10/24 11:56:16;;;;;;;14.30;3.50;;;13.80;59.50;;;;;;5049733;28;20201;-83
2021/10/24 12:01:24;;;;;;;5.30;3.70;;;13.80;59.80;;;;;;5040726;28;20162;-83
2021/10/24 12:03:59;;;;;;;5.53;3.95;;;13.90;59.50;;;;;;5055640;28;20200;-83
2021/10/24 12:06:47;;;;;;;5.75;3.90;;;13.80;59.10;;;;;;5060120;28;20234;-83
2021/10/24 12:09:14;;;;;;;6.22;3.38;;;13.70;59.50;;;;;;5042680;28;20184;-83
2021/10/24 12:11:45;;;;;;;6.45;4.28;;;13.90;59.00;;;;;;5042550;28;20735;-83
2021/10/24 12:14:15;;;;;;;7.53;3.60;;;13.90;59.80;;;;;;5021332;28;20206;-83
2021/10/24 12:16:43;;;;;;;4.57;3.40;;;14.00;59.50;;;;;;5021274;28;20174;-83
2021/10/24 12:19:20;;;;;;;4.60;3.38;;;14.00;59.00;;;;;;5021647;28;20204;-83
2021/10/24 12:22:07;;;;;;;4.30;3.35;;;14.10;59.60;;;;;;5021111;28;20227;-84
2021/10/24 12:24:50;;;;;;;3.60;3.30;;;14.00;58.40;;;;;;5037177;28;20209;-83
2021/10/24 12:27:20;;;;;;;4.55;3.20;;;14.00;58.20;;;;;;5031845;28;20234;-83
2021/10/24 12:29:55;;;;;;;4.90;4.03;;;14.00;58.00;;;;;;5024369;28;20611;-83
2021/10/24 12:32:21;;;;;;;4.50;3.20;;;14.00;57.80;;;;;;5057813;28;20176;-83
2021/10/24 12:35:20;;;;;;;5.93;3.40;;;14.00;58.30;;;;;;5038352;28;20209;-84
2021/10/24 12:37:56;;;;;;;10.77;3.67;;;14.10;57.90;;;;;;5003687;28;20667;-83
2021/10/24 12:40:28;;;;;;;5.50;2.85;;;14.00;57.70;;;;;;5043409;28;20181;-83
2021/10/24 12:43:14;;;;;;;5.57;3.65;;;14.00;57.40;;;;;;5042763;28;20245;-83
2021/10/24 12:45:52;;;;;;;4.70;3.33;;;14.20;58.40;;;;;;5042679;28;20173;-83
2021/10/24 12:48:36;;;;;;;13.18;4.38;;;14.30;58.10;;;;;;5041058;28;20185;-84
2021/10/24 12:51:22;;;;;;;7.30;3.95;;;14.20;57.00;;;;;;5060496;28;20583;-83